sensor_id;sensor_type;location;lat;lon;timestamp;pressure;altitude;pressure_sealevel;temperature;humidity
65614;BME280;52283;49.292;10.572;2023-04-26T00:00:28;96459.94;;;3.85;100.00
65614;BME280;52283;49.292;10.572;2023-04-26T00:02:55;96458.06;;;3.73;100.00
65614;BME280;52283;49.292;10.572;2023-04-26T00:05:24;96459.00;;;3.70;100.00
65614;BME280;52283;49.292;10.572;2023-04-26T00:07:51;96465.00;;;3.77;100.00
65614;BME280;52283;49.292;10.572;2023-04-26T00:10:18;96463.63;;;3.82;100.00
65614;BME280;52283;49.292;10.572;2023-04-26T00:12:46;96467.00;;;3.86;100.00
65614;BME280;52283;49.292;10.572;2023-04-26T00:15:12;96454.69;;;3.68;100.00
65614;BME280;52283;49.292;10.572;2023-04-26T00:17:39;96468.53;;;3.78;100.00
65614;BME280;52283;49.292;10.572;2023-04-26T00:20:07;96467.75;;;3.59;100.00
65614;BME280;52283;49.292;10.572;2023-04-26T00:22:35;96462.22;;;3.59;100.00
65614;BME280;52283;49.292;10.572;2023-04-26T00:25:02;96463.75;;;3.60;100.00
65614;BME280;52283;49.292;10.572;2023-04-26T00:27:28;96464.06;;;3.62;100.00
65614;BME280;52283;49.292;10.572;2023-04-26T00:29:57;96454.50;;;3.45;100.00
65614;BME280;52283;49.292;10.572;2023-04-26T00:32:23;96458.06;;;3.63;100.00
65614;BME280;52283;49.292;10.572;2023-04-26T00:34:50;96453.91;;;3.59;100.00
65614;BME280;52283;49.292;10.572;2023-04-26T00:37:16;96462.94;;;3.50;100.00
65614;BME280;52283;49.292;10.572;2023-04-26T00:39:43;96460.00;;;3.45;100.00
65614;BME280;52283;49.292;10.572;2023-04-26T00:42:09;96460.47;;;3.34;100.00
65614;BME280;52283;49.292;10.572;2023-04-26T00:44:36;96456.25;;;3.20;100.00
65614;BME280;52283;49.292;10.572;2023-04-26T00:47:05;96467.69;;;3.10;100.00
65614;BME280;52283;49.292;10.572;2023-04-26T00:49:32;96467.22;;;3.02;100.00
65614;BME280;52283;49.292;10.572;2023-04-26T00:51:58;96468.75;;;3.03;100.00
65614;BME280;52283;49.292;10.572;2023-04-26T00:54:25;96468.16;;;3.08;100.00
65614;BME280;52283;49.292;10.572;2023-04-26T00:56:53;96468.16;;;3.08;100.00
65614;BME280;52283;49.292;10.572;2023-04-26T00:59:20;96465.63;;;3.23;100.00
65614;BME280;52283;49.292;10.572;2023-04-26T01:01:46;96467.00;;;3.18;100.00
65614;BME280;52283;49.292;10.572;2023-04-26T01:04:14;96466.84;;;3.22;100.00
65614;BME280;52283;49.292;10.572;2023-04-26T01:06:41;96464.56;;;3.29;100.00
65614;BME280;52283;49.292;10.572;2023-04-26T01:09:08;96476.22;;;3.24;100.00
65614;BME280;52283;49.292;10.572;2023-04-26T01:11:37;96465.63;;;3.23;100.00
65614;BME280;52283;49.292;10.572;2023-04-26T01:14:04;96475.28;;;3.18;100.00
65614;BME280;52283;49.292;10.572;2023-04-26T01:16:32;96478.19;;;3.15;100.00
65614;BME280;52283;49.292;10.572;2023-04-26T01:19:06;96472.81;;;3.20;100.00
65614;BME280;52283;49.292;10.572;2023-04-26T01:21:35;96476.50;;;3.17;100.00
65614;BME280;52283;49.292;10.572;2023-04-26T01:24:03;96478.34;;;3.20;100.00
65614;BME280;52283;49.292;10.572;2023-04-26T01:26:30;96468.25;;;3.26;100.00
65614;BME280;52283;49.292;10.572;2023-04-26T01:28:56;96474.84;;;3.29;100.00
65614;BME280;52283;49.292;10.572;2023-04-26T01:31:23;96477.56;;;3.20;100.00
65614;BME280;52283;49.292;10.572;2023-04-26T01:33:50;96476.34;;;3.21;100.00
65614;BME280;52283;49.292;10.572;2023-04-26T01:36:16;96476.28;;;3.02;100.00
65614;BME280;52283;49.292;10.572;2023-04-26T01:38:43;96471.41;;;2.85;100.00
65614;BME280;52283;49.292;10.572;2023-04-26T01:41:11;96466.53;;;2.89;100.00
65614;BME280;52283;49.292;10.572;2023-04-26T01:43:37;96470.19;;;2.86;100.00
65614;BME280;52283;49.292;10.572;2023-04-26T01:46:03;96484.75;;;2.55;100.00
65614;BME280;52283;49.292;10.572;2023-04-26T01:48:30;96487.41;;;2.24;100.00
65614;BME280;52283;49.292;10.572;2023-04-26T01:50:57;96484.88;;;2.30;100.00
65614;BME280;52283;49.292;10.572;2023-04-26T01:53:23;96481.09;;;2.36;100.00
65614;BME280;52283;49.292;10.572;2023-04-26T01:55:50;96486.34;;;2.43;100.00
65614;BME280;52283;49.292;10.572;2023-04-26T01:58:18;96486.41;;;2.74;100.00
65614;BME280;52283;49.292;10.572;2023-04-26T02:00:44;96478.41;;;2.98;100.00
65614;BME280;52283;49.292;10.572;2023-04-26T02:03:10;96489.47;;;3.08;100.00
65614;BME280;52283;49.292;10.572;2023-04-26T02:05:37;96476.44;;;3.08;100.00
65614;BME280;52283;49.292;10.572;2023-04-26T02:08:03;96485.50;;;3.09;100.00
65614;BME280;52283;49.292;10.572;2023-04-26T02:10:30;96485.94;;;3.07;100.00
65614;BME280;52283;49.292;10.572;2023-04-26T02:12:56;96479.94;;;2.99;100.00
65614;BME280;52283;49.292;10.572;2023-04-26T02:15:24;96475.47;;;2.93;100.00
65614;BME280;52283;49.292;10.572;2023-04-26T02:17:51;96468.06;;;2.90;100.00
65614;BME280;52283;49.292;10.572;2023-04-26T02:20:18;96479.31;;;2.95;100.00
65614;BME280;52283;49.292;10.572;2023-04-26T02:22:44;96484.44;;;2.84;100.00
65614;BME280;52283;49.292;10.572;2023-04-26T02:25:11;96487.84;;;2.88;100.00
65614;BME280;52283;49.292;10.572;2023-04-26T02:27:37;96480.53;;;2.94;100.00
65614;BME280;52283;49.292;10.572;2023-04-26T02:30:05;96482.97;;;2.92;100.00
65614;BME280;52283;49.292;10.572;2023-04-26T02:32:33;96481.75;;;2.93;100.00
65614;BME280;52283;49.292;10.572;2023-04-26T02:34:59;96480.88;;;2.74;100.00
65614;BME280;52283;49.292;10.572;2023-04-26T02:37:26;96476.38;;;2.68;100.00
65614;BME280;52283;49.292;10.572;2023-04-26T02:39:52;96473.75;;;2.64;100.00
65614;BME280;52283;49.292;10.572;2023-04-26T02:42:19;96474.69;;;2.70;100.00
65614;BME280;52283;49.292;10.572;2023-04-26T02:44:45;96468.88;;;2.68;100.00
65614;BME280;52283;49.292;10.572;2023-04-26T02:47:12;96467.22;;;2.71;100.00
65614;BME280;52283;49.292;10.572;2023-04-26T02:49:39;96479.22;;;2.55;100.00
65614;BME280;52283;49.292;10.572;2023-04-26T02:52:06;96472.16;;;2.54;100.00
65614;BME280;52283;49.292;10.572;2023-04-26T02:54:32;96475.84;;;2.51;100.00
65614;BME280;52283;49.292;10.572;2023-04-26T02:56:59;96480.75;;;2.56;100.00
65614;BME280;52283;49.292;10.572;2023-04-26T02:59:25;96475.25;;;2.56;100.00
65614;BME280;52283;49.292;10.572;2023-04-26T03:01:52;96481.13;;;2.45;100.00
65614;BME280;52283;49.292;10.572;2023-04-26T03:04:18;96475.63;;;2.45;100.00
65614;BME280;52283;49.292;10.572;2023-04-26T03:06:46;96483.66;;;2.53;100.00
65614;BME280;52283;49.292;10.572;2023-04-26T03:09:13;96476.72;;;2.48;100.00
65614;BME280;52283;49.292;10.572;2023-04-26T03:11:39;96484.22;;;2.26;100.00
65614;BME280;52283;49.292;10.572;2023-04-26T03:14:06;96487.19;;;2.31;100.00
65614;BME280;52283;49.292;10.572;2023-04-26T03:16:39;96483.19;;;2.32;100.00
65614;BME280;52283;49.292;10.572;2023-04-26T03:19:06;96483.72;;;2.40;100.00
65614;BME280;52283;49.292;10.572;2023-04-26T03:21:33;96483.84;;;2.36;100.00
65614;BME280;52283;49.292;10.572;2023-04-26T03:24:01;96489.34;;;2.36;100.00
65614;BME280;52283;49.292;10.572;2023-04-26T03:26:28;96484.47;;;2.40;100.00
65614;BME280;52283;49.292;10.572;2023-04-26T03:28:54;96479.53;;;2.35;100.00
65614;BME280;52283;49.292;10.572;2023-04-26T03:31:20;96485.31;;;2.50;100.00
65614;BME280;52283;49.292;10.572;2023-04-26T03:33:48;96479.91;;;2.47;100.00
65614;BME280;52283;49.292;10.572;2023-04-26T03:36:15;96483.22;;;2.54;100.00
65614;BME280;52283;49.292;10.572;2023-04-26T03:38:41;96493.16;;;2.52;100.00
65614;BME280;52283;49.292;10.572;2023-04-26T03:41:09;96489.22;;;2.40;100.00
65614;BME280;52283;49.292;10.572;2023-04-26T03:43:35;96496.66;;;2.30;100.00
65614;BME280;52283;49.292;10.572;2023-04-26T03:46:03;96500.25;;;2.40;100.00
65614;BME280;52283;49.292;10.572;2023-04-26T03:48:29;96505.03;;;2.27;100.00
65614;BME280;52283;49.292;10.572;2023-04-26T03:50:56;96499.44;;;2.30;100.00
65614;BME280;52283;49.292;10.572;2023-04-26T03:53:22;96494.22;;;2.32;100.00
65614;BME280;52283;49.292;10.572;2023-04-26T03:55:49;96489.25;;;2.05;100.00
65614;BME280;52283;49.292;10.572;2023-04-26T03:58:17;96493.91;;;1.96;100.00
65614;BME280;52283;49.292;10.572;2023-04-26T04:00:43;96497.59;;;1.80;100.00
65614;BME280;52283;49.292;10.572;2023-04-26T04:03:10;96514.25;;;1.64;100.00
65614;BME280;52283;49.292;10.572;2023-04-26T04:05:36;96503.34;;;1.73;100.00
65614;BME280;52283;49.292;10.572;2023-04-26T04:08:03;96499.00;;;1.84;100.00
65614;BME280;52283;49.292;10.572;2023-04-26T04:10:29;96502.66;;;1.81;100.00
65614;BME280;52283;49.292;10.572;2023-04-26T04:12:56;96497.84;;;1.73;100.00
65614;BME280;52283;49.292;10.572;2023-04-26T04:15:24;96500.91;;;1.75;100.00
65614;BME280;52283;49.292;10.572;2023-04-26T04:17:51;96500.16;;;1.74;100.00
65614;BME280;52283;49.292;10.572;2023-04-26T04:20:17;96505.22;;;1.63;100.00
65614;BME280;52283;49.292;10.572;2023-04-26T04:22:45;96504.81;;;1.52;100.00
65614;BME280;52283;49.292;10.572;2023-04-26T04:25:12;96509.22;;;1.49;100.00
65614;BME280;52283;49.292;10.572;2023-04-26T04:27:39;96505.34;;;1.60;100.00
65614;BME280;52283;49.292;10.572;2023-04-26T04:30:08;96512.81;;;1.72;100.00
65614;BME280;52283;49.292;10.572;2023-04-26T04:32:37;96502.59;;;1.60;100.00
65614;BME280;52283;49.292;10.572;2023-04-26T04:35:05;96507.97;;;1.63;100.00
65614;BME280;52283;49.292;10.572;2023-04-26T04:37:31;96505.38;;;1.47;100.00
65614;BME280;52283;49.292;10.572;2023-04-26T04:39:59;96508.00;;;1.38;100.00
65614;BME280;52283;49.292;10.572;2023-04-26T04:42:25;96523.97;;;1.30;100.00
65614;BME280;52283;49.292;10.572;2023-04-26T04:44:52;96516.38;;;1.34;100.00
65614;BME280;52283;49.292;10.572;2023-04-26T04:47:19;96518.69;;;1.36;100.00
65614;BME280;52283;49.292;10.572;2023-04-26T04:49:46;96521.31;;;1.39;100.00
65614;BME280;52283;49.292;10.572;2023-04-26T04:52:13;96520.56;;;1.39;100.00
65614;BME280;52283;49.292;10.572;2023-04-26T04:54:39;96524.72;;;1.43;100.00
65614;BME280;52283;49.292;10.572;2023-04-26T04:57:06;96531.69;;;1.48;100.00
65614;BME280;52283;49.292;10.572;2023-04-26T04:59:32;96525.84;;;1.59;100.00
65614;BME280;52283;49.292;10.572;2023-04-26T05:01:59;96530.38;;;1.52;100.00
65614;BME280;52283;49.292;10.572;2023-04-26T05:04:25;96536.97;;;1.42;100.00
65614;BME280;52283;49.292;10.572;2023-04-26T05:06:53;96541.59;;;1.45;100.00
65614;BME280;52283;49.292;10.572;2023-04-26T05:09:19;96545.13;;;1.46;100.00
65614;BME280;52283;49.292;10.572;2023-04-26T05:11:46;96543.69;;;1.67;100.00
65614;BME280;52283;49.292;10.572;2023-04-26T05:14:13;96550.84;;;1.51;100.00
65614;BME280;52283;49.292;10.572;2023-04-26T05:16:39;96543.13;;;1.59;100.00
65614;BME280;52283;49.292;10.572;2023-04-26T05:19:06;96546.88;;;1.65;100.00
65614;BME280;52283;49.292;10.572;2023-04-26T05:21:32;96540.59;;;1.77;100.00
65614;BME280;52283;49.292;10.572;2023-04-26T05:24:00;96543.47;;;1.74;100.00
65614;BME280;52283;49.292;10.572;2023-04-26T05:26:27;96554.34;;;1.77;100.00
65614;BME280;52283;49.292;10.572;2023-04-26T05:28:53;96550.56;;;1.97;100.00
65614;BME280;52283;49.292;10.572;2023-04-26T05:31:20;96542.88;;;1.92;100.00
65614;BME280;52283;49.292;10.572;2023-04-26T05:33:46;96544.88;;;1.91;100.00
65614;BME280;52283;49.292;10.572;2023-04-26T05:36:13;96552.75;;;2.02;100.00
65614;BME280;52283;49.292;10.572;2023-04-26T05:38:39;96559.94;;;1.99;100.00
65614;BME280;52283;49.292;10.572;2023-04-26T05:41:07;96561.03;;;2.14;100.00
65614;BME280;52283;49.292;10.572;2023-04-26T05:43:34;96554.94;;;2.20;100.00
65614;BME280;52283;49.292;10.572;2023-04-26T05:46:00;96565.06;;;2.23;100.00
65614;BME280;52283;49.292;10.572;2023-04-26T05:48:27;96558.81;;;2.44;100.00
65614;BME280;52283;49.292;10.572;2023-04-26T05:50:54;96578.00;;;2.48;100.00
65614;BME280;52283;49.292;10.572;2023-04-26T05:53:20;96570.31;;;2.64;100.00
65614;BME280;52283;49.292;10.572;2023-04-26T05:55:47;96568.97;;;2.69;100.00
65614;BME280;52283;49.292;10.572;2023-04-26T05:58:15;96568.28;;;2.78;100.00
65614;BME280;52283;49.292;10.572;2023-04-26T06:00:41;96564.22;;;2.91;100.00
65614;BME280;52283;49.292;10.572;2023-04-26T06:03:08;96561.09;;;3.02;100.00
65614;BME280;52283;49.292;10.572;2023-04-26T06:05:35;96578.22;;;3.19;100.00
65614;BME280;52283;49.292;10.572;2023-04-26T06:08:03;96562.19;;;3.35;100.00
65614;BME280;52283;49.292;10.572;2023-04-26T06:10:30;96580.63;;;3.39;100.00
65614;BME280;52283;49.292;10.572;2023-04-26T06:12:56;96585.84;;;3.36;100.00
65614;BME280;52283;49.292;10.572;2023-04-26T06:15:24;96574.75;;;3.67;100.00
65614;BME280;52283;49.292;10.572;2023-04-26T06:17:51;96574.97;;;3.82;100.00
65614;BME280;52283;49.292;10.572;2023-04-26T06:20:18;96579.97;;;4.15;100.00
65614;BME280;52283;49.292;10.572;2023-04-26T06:22:44;96574.72;;;3.98;100.00
65614;BME280;52283;49.292;10.572;2023-04-26T06:25:11;96573.66;;;4.05;100.00
65614;BME280;52283;49.292;10.572;2023-04-26T06:27:37;96578.72;;;4.07;100.00
65614;BME280;52283;49.292;10.572;2023-04-26T06:30:07;96571.19;;;4.16;100.00
65614;BME280;52283;49.292;10.572;2023-04-26T06:32:35;96570.66;;;4.67;100.00
65614;BME280;52283;49.292;10.572;2023-04-26T06:35:01;96561.09;;;4.96;100.00
65614;BME280;52283;49.292;10.572;2023-04-26T06:37:28;96564.44;;;5.27;100.00
65614;BME280;52283;49.292;10.572;2023-04-26T06:39:54;96559.13;;;5.47;100.00
65614;BME280;52283;49.292;10.572;2023-04-26T06:42:20;96554.59;;;5.68;96.47
65614;BME280;52283;49.292;10.572;2023-04-26T06:44:47;96549.91;;;6.17;92.88
65614;BME280;52283;49.292;10.572;2023-04-26T06:47:13;96557.84;;;6.24;90.81
65614;BME280;52283;49.292;10.572;2023-04-26T06:49:41;96541.25;;;6.62;87.52
65614;BME280;52283;49.292;10.572;2023-04-26T06:52:08;96537.34;;;6.69;86.85
65614;BME280;52283;49.292;10.572;2023-04-26T06:54:34;96524.47;;;6.57;79.10
65614;BME280;52283;49.292;10.572;2023-04-26T06:57:01;96538.84;;;6.55;78.72
65614;BME280;52283;49.292;10.572;2023-04-26T06:59:27;96534.41;;;6.87;78.16
65614;BME280;52283;49.292;10.572;2023-04-26T07:01:53;96522.81;;;7.48;73.56
65614;BME280;52283;49.292;10.572;2023-04-26T07:04:20;96529.44;;;7.21;74.51
65614;BME280;52283;49.292;10.572;2023-04-26T07:06:48;96524.34;;;6.75;71.96
65614;BME280;52283;49.292;10.572;2023-04-26T07:09:15;96526.72;;;6.82;71.41
65614;BME280;52283;49.292;10.572;2023-04-26T07:11:44;96531.50;;;6.67;71.44
65614;BME280;52283;49.292;10.572;2023-04-26T07:14:11;96529.31;;;6.71;70.57
65614;BME280;52283;49.292;10.572;2023-04-26T07:16:37;96534.91;;;7.45;70.45
65614;BME280;52283;49.292;10.572;2023-04-26T07:19:04;96525.50;;;7.57;69.30
65614;BME280;52283;49.292;10.572;2023-04-26T07:21:31;96516.56;;;8.03;66.74
65614;BME280;52283;49.292;10.572;2023-04-26T07:23:58;96521.31;;;7.32;67.97
65614;BME280;52283;49.292;10.572;2023-04-26T07:26:25;96522.63;;;7.37;68.98
65614;BME280;52283;49.292;10.572;2023-04-26T07:28:52;96528.69;;;7.20;68.05
65614;BME280;52283;49.292;10.572;2023-04-26T07:31:19;96526.88;;;8.17;65.08
65614;BME280;52283;49.292;10.572;2023-04-26T07:33:45;96518.72;;;8.74;63.56
65614;BME280;52283;49.292;10.572;2023-04-26T07:36:12;96507.94;;;8.82;60.17
65614;BME280;52283;49.292;10.572;2023-04-26T07:38:38;96510.41;;;8.54;59.69
65614;BME280;52283;49.292;10.572;2023-04-26T07:41:06;96518.38;;;8.26;60.44
65614;BME280;52283;49.292;10.572;2023-04-26T07:43:33;96512.19;;;7.81;61.88
65614;BME280;52283;49.292;10.572;2023-04-26T07:45:59;96508.16;;;8.17;59.61
65614;BME280;52283;49.292;10.572;2023-04-26T07:48:26;96502.72;;;8.29;58.96
65614;BME280;52283;49.292;10.572;2023-04-26T07:50:53;96490.78;;;8.89;56.63
65614;BME280;52283;49.292;10.572;2023-04-26T07:53:20;96492.22;;;9.36;56.04
65614;BME280;52283;49.292;10.572;2023-04-26T07:55:46;96482.72;;;9.54;54.76
65614;BME280;52283;49.292;10.572;2023-04-26T07:58:14;96478.66;;;9.87;54.05
65614;BME280;52283;49.292;10.572;2023-04-26T08:00:41;96487.72;;;9.13;56.78
65614;BME280;52283;49.292;10.572;2023-04-26T08:03:07;96483.75;;;9.94;56.39
65614;BME280;52283;49.292;10.572;2023-04-26T08:05:34;96505.66;;;8.60;57.58
65614;BME280;52283;49.292;10.572;2023-04-26T08:08:00;96513.63;;;8.32;59.40
65614;BME280;52283;49.292;10.572;2023-04-26T08:10:27;96523.16;;;8.40;61.65
65614;BME280;52283;49.292;10.572;2023-04-26T08:12:54;96518.91;;;9.43;58.27
65614;BME280;52283;49.292;10.572;2023-04-26T08:15:23;96506.38;;;9.01;57.09
65614;BME280;52283;49.292;10.572;2023-04-26T08:17:49;96511.91;;;8.14;60.09
65614;BME280;52283;49.292;10.572;2023-04-26T08:20:17;96528.78;;;8.11;62.34
65614;BME280;52283;49.292;10.572;2023-04-26T08:22:44;96531.34;;;7.00;62.95
65614;BME280;52283;49.292;10.572;2023-04-26T08:25:10;96537.38;;;7.43;62.76
65614;BME280;52283;49.292;10.572;2023-04-26T08:27:37;96527.91;;;7.20;62.22
65614;BME280;52283;49.292;10.572;2023-04-26T08:30:05;96535.63;;;6.86;64.59
65614;BME280;52283;49.292;10.572;2023-04-26T08:32:33;96533.75;;;7.22;63.57
65614;BME280;52283;49.292;10.572;2023-04-26T08:34:59;96524.72;;;7.56;61.79
65614;BME280;52283;49.292;10.572;2023-04-26T08:37:26;96531.72;;;6.93;66.26
65614;BME280;52283;49.292;10.572;2023-04-26T08:39:53;96534.47;;;7.67;65.29
65614;BME280;52283;49.292;10.572;2023-04-26T08:42:24;96509.06;;;9.47;57.85
65614;BME280;52283;49.292;10.572;2023-04-26T08:44:52;96526.13;;;8.77;61.13
65614;BME280;52283;49.292;10.572;2023-04-26T08:47:23;96511.31;;;8.66;58.68
65614;BME280;52283;49.292;10.572;2023-04-26T08:49:57;96500.47;;;9.88;56.14
65614;BME280;52283;49.292;10.572;2023-04-26T08:52:27;96482.38;;;9.78;48.87
65614;BME280;52283;49.292;10.572;2023-04-26T08:54:55;96478.31;;;8.84;48.75
65614;BME280;52283;49.292;10.572;2023-04-26T08:57:23;96485.47;;;8.91;47.97
65614;BME280;52283;49.292;10.572;2023-04-26T08:59:50;96487.47;;;8.24;50.04
65614;BME280;52283;49.292;10.572;2023-04-26T09:02:19;96494.41;;;7.58;50.93
65614;BME280;52283;49.292;10.572;2023-04-26T09:04:47;96499.75;;;7.12;51.21
65614;BME280;52283;49.292;10.572;2023-04-26T09:07:19;96491.34;;;7.71;51.04
65614;BME280;52283;49.292;10.572;2023-04-26T09:09:47;96486.22;;;8.66;49.05
65614;BME280;52283;49.292;10.572;2023-04-26T09:12:17;96475.94;;;8.98;48.12
65614;BME280;52283;49.292;10.572;2023-04-26T09:14:44;96473.69;;;9.65;47.18
65614;BME280;52283;49.292;10.572;2023-04-26T09:17:24;96472.47;;;8.82;47.54
65614;BME280;52283;49.292;10.572;2023-04-26T09:19:51;96481.59;;;8.37;49.87
65614;BME280;52283;49.292;10.572;2023-04-26T09:22:28;96484.75;;;8.70;49.95
65614;BME280;52283;49.292;10.572;2023-04-26T09:24:54;96489.88;;;7.76;50.81
65614;BME280;52283;49.292;10.572;2023-04-26T09:27:21;96492.75;;;8.02;50.27
65614;BME280;52283;49.292;10.572;2023-04-26T09:29:58;96501.63;;;8.20;50.45
65614;BME280;52283;49.292;10.572;2023-04-26T09:32:25;96490.59;;;8.11;50.17
65614;BME280;52283;49.292;10.572;2023-04-26T09:34:53;96493.22;;;7.80;50.56
65614;BME280;52283;49.292;10.572;2023-04-26T09:37:19;96495.41;;;8.11;50.43
65614;BME280;52283;49.292;10.572;2023-04-26T09:39:47;96471.31;;;8.28;46.62
65614;BME280;52283;49.292;10.572;2023-04-26T09:42:15;96478.81;;;7.81;48.04
65614;BME280;52283;49.292;10.572;2023-04-26T09:44:42;96467.25;;;7.68;46.73
65614;BME280;52283;49.292;10.572;2023-04-26T09:47:10;96481.13;;;7.83;46.23
65614;BME280;52283;49.292;10.572;2023-04-26T09:49:46;96484.19;;;8.05;47.52
65614;BME280;52283;49.292;10.572;2023-04-26T09:52:15;96472.25;;;9.12;45.81
65614;BME280;52283;49.292;10.572;2023-04-26T09:54:44;96458.13;;;9.53;44.75
65614;BME280;52283;49.292;10.572;2023-04-26T09:57:13;96445.31;;;9.72;43.07
65614;BME280;52283;49.292;10.572;2023-04-26T09:59:42;96466.94;;;8.88;45.52
65614;BME280;52283;49.292;10.572;2023-04-26T10:02:13;96480.84;;;8.82;48.08
65614;BME280;52283;49.292;10.572;2023-04-26T10:04:41;96478.16;;;8.68;47.51
65614;BME280;52283;49.292;10.572;2023-04-26T10:07:08;96467.75;;;9.89;46.34
65614;BME280;52283;49.292;10.572;2023-04-26T10:09:35;96461.47;;;10.53;45.21
65614;BME280;52283;49.292;10.572;2023-04-26T10:12:02;96468.88;;;9.65;46.55
65614;BME280;52283;49.292;10.572;2023-04-26T10:14:33;96476.16;;;8.74;46.92
65614;BME280;52283;49.292;10.572;2023-04-26T10:17:00;96478.50;;;8.75;48.07
65614;BME280;52283;49.292;10.572;2023-04-26T10:19:28;96480.06;;;8.56;47.82
65614;BME280;52283;49.292;10.572;2023-04-26T10:21:59;96476.03;;;8.37;48.06
65614;BME280;52283;49.292;10.572;2023-04-26T10:24:27;96471.28;;;8.22;48.11
65614;BME280;52283;49.292;10.572;2023-04-26T10:26:54;96475.38;;;8.47;47.98
65614;BME280;52283;49.292;10.572;2023-04-26T10:29:22;96479.03;;;8.79;48.02
65614;BME280;52283;49.292;10.572;2023-04-26T10:32:07;96469.63;;;9.66;48.26
65614;BME280;52283;49.292;10.572;2023-04-26T10:34:36;96458.66;;;10.42;46.73
65614;BME280;52283;49.292;10.572;2023-04-26T10:37:07;96466.66;;;9.38;46.51
65614;BME280;52283;49.292;10.572;2023-04-26T10:39:34;96449.22;;;9.48;46.21
65614;BME280;52283;49.292;10.572;2023-04-26T10:42:17;96436.81;;;9.92;45.19
65614;BME280;52283;49.292;10.572;2023-04-26T10:44:47;96439.19;;;10.92;45.88
65614;BME280;52283;49.292;10.572;2023-04-26T10:47:27;96448.94;;;9.15;45.00
65614;BME280;52283;49.292;10.572;2023-04-26T10:50:01;96445.69;;;9.54;45.25
65614;BME280;52283;49.292;10.572;2023-04-26T10:52:28;96440.63;;;9.95;43.35
65614;BME280;52283;49.292;10.572;2023-04-26T10:54:56;96428.75;;;10.76;42.72
65614;BME280;52283;49.292;10.572;2023-04-26T11:00:16;96438.94;;;10.90;42.74
65614;BME280;52283;49.292;10.572;2023-04-26T11:02:52;96435.78;;;10.44;43.98
65614;BME280;52283;49.292;10.572;2023-04-26T11:05:47;96438.91;;;10.79;45.52
65614;BME280;52283;49.292;10.572;2023-04-26T11:08:17;96449.19;;;9.43;44.25
65614;BME280;52283;49.292;10.572;2023-04-26T11:10:50;96451.81;;;8.95;45.56
65614;BME280;52283;49.292;10.572;2023-04-26T11:13:17;96445.97;;;9.19;44.37
65614;BME280;52283;49.292;10.572;2023-04-26T11:15:45;96442.28;;;9.07;45.07
65614;BME280;52283;49.292;10.572;2023-04-26T11:18:17;96447.53;;;9.25;45.26
65614;BME280;52283;49.292;10.572;2023-04-26T11:20:44;96441.00;;;9.02;45.21
65614;BME280;52283;49.292;10.572;2023-04-26T11:23:10;96433.88;;;9.33;44.50
65614;BME280;52283;49.292;10.572;2023-04-26T11:25:38;96424.44;;;10.04;44.59
65614;BME280;52283;49.292;10.572;2023-04-26T11:28:05;96428.72;;;10.59;44.94
65614;BME280;52283;49.292;10.572;2023-04-26T11:30:32;96419.41;;;10.20;43.62
65614;BME280;52283;49.292;10.572;2023-04-26T11:32:59;96425.63;;;9.50;44.43
65614;BME280;52283;49.292;10.572;2023-04-26T11:35:27;96433.16;;;9.06;44.36
65614;BME280;52283;49.292;10.572;2023-04-26T11:37:57;96426.47;;;9.24;45.40
65614;BME280;52283;49.292;10.572;2023-04-26T11:40:27;96431.00;;;8.90;46.03
65614;BME280;52283;49.292;10.572;2023-04-26T11:42:53;96432.31;;;9.26;45.93
65614;BME280;52283;49.292;10.572;2023-04-26T11:45:20;96430.34;;;9.01;45.30
65614;BME280;52283;49.292;10.572;2023-04-26T11:47:46;96433.84;;;9.27;46.33
65614;BME280;52283;49.292;10.572;2023-04-26T11:50:13;96428.66;;;9.14;45.46
65614;BME280;52283;49.292;10.572;2023-04-26T11:52:41;96423.50;;;9.02;45.01
65614;BME280;52283;49.292;10.572;2023-04-26T11:55:08;96420.78;;;9.82;44.18
65614;BME280;52283;49.292;10.572;2023-04-26T11:57:35;96408.28;;;9.71;43.50
65614;BME280;52283;49.292;10.572;2023-04-26T12:00:10;96416.97;;;9.42;44.70
65614;BME280;52283;49.292;10.572;2023-04-26T12:02:39;96410.31;;;9.76;43.56
65614;BME280;52283;49.292;10.572;2023-04-26T12:05:09;96403.16;;;9.64;44.15
65614;BME280;52283;49.292;10.572;2023-04-26T12:07:36;96395.75;;;10.86;43.29
65614;BME280;52283;49.292;10.572;2023-04-26T12:10:17;96404.56;;;10.51;43.75
65614;BME280;52283;49.292;10.572;2023-04-26T12:12:46;96404.84;;;9.99;43.86
65614;BME280;52283;49.292;10.572;2023-04-26T12:15:14;96400.06;;;11.04;44.15
65614;BME280;52283;49.292;10.572;2023-04-26T12:17:50;96388.63;;;10.85;41.85
65614;BME280;52283;49.292;10.572;2023-04-26T12:20:17;96392.66;;;9.96;43.69
65614;BME280;52283;49.292;10.572;2023-04-26T12:22:56;96399.72;;;9.81;45.30
65614;BME280;52283;49.292;10.572;2023-04-26T12:25:24;96390.75;;;9.71;44.23
65614;BME280;52283;49.292;10.572;2023-04-26T12:27:50;96386.88;;;9.57;45.29
65614;BME280;52283;49.292;10.572;2023-04-26T12:30:17;96389.22;;;9.64;44.67
65614;BME280;52283;49.292;10.572;2023-04-26T12:32:43;96395.19;;;9.94;45.40
65614;BME280;52283;49.292;10.572;2023-04-26T12:35:13;96398.75;;;9.95;44.08
65614;BME280;52283;49.292;10.572;2023-04-26T12:37:39;96396.91;;;10.34;44.36
65614;BME280;52283;49.292;10.572;2023-04-26T12:40:07;96388.00;;;10.25;45.32
65614;BME280;52283;49.292;10.572;2023-04-26T12:42:35;96380.00;;;10.83;45.56
65614;BME280;52283;49.292;10.572;2023-04-26T12:45:02;96382.25;;;10.73;44.59
65614;BME280;52283;49.292;10.572;2023-04-26T12:47:29;96374.19;;;10.04;44.40
65614;BME280;52283;49.292;10.572;2023-04-26T12:49:56;96384.34;;;10.07;44.02
65614;BME280;52283;49.292;10.572;2023-04-26T12:52:23;96375.56;;;10.26;43.37
65614;BME280;52283;49.292;10.572;2023-04-26T12:54:50;96375.97;;;9.54;43.75
65614;BME280;52283;49.292;10.572;2023-04-26T12:57:16;96373.13;;;9.96;43.47
65614;BME280;52283;49.292;10.572;2023-04-26T12:59:44;96374.63;;;10.68;43.31